Time;durP1;ratioP1;P1;durP2;ratioP2;P2;SDS_P1;SDS_P2;PMS_P1;PMS_P2;Temp;Humidity;BMP_temperature;BMP_pressure;BME280_temperature;BME280_humidity;BME280_pressure;Samples;Min_cycle;Max_cycle;Signal;HPM_P1;HPM_P2
2023/03/01 00:01:45;;;;;;;94.60;50.95;;;;;;;-2.15;83.51;101004.41;5052335;28;20029;-75
2023/03/01 00:04:10;;;;;;;95.10;50.83;;;;;;;-2.02;83.83;101039.66;5052548;28;20036;-76
2023/03/01 00:06:35;;;;;;;87.25;48.58;;;;;;;-2.23;85.00;101012.66;5051902;28;20029;-75
2023/03/01 00:09:01;;;;;;;94.65;52.78;;;;;;;-2.18;84.83;101019.63;5052111;28;20484;-76
2023/03/01 00:11:29;;;;;;;89.63;48.08;;;;;;;-2.23;84.59;101011.00;5051895;28;20024;-76
2023/03/01 00:13:57;;;;;;;89.88;49.88;;;;;;;-2.05;84.42;101038.69;5051808;28;20108;-75
2023/03/01 00:16:26;;;;;;;93.38;50.40;;;;;;;-2.12;84.25;101024.03;5051932;28;20473;-76
2023/03/01 00:18:51;;;;;;;93.00;49.20;;;;;;;-2.14;84.25;101028.25;5051887;28;20511;-75
2023/03/01 00:21:19;;;;;;;94.45;50.25;;;;;;;-2.12;84.26;101045.31;5052004;28;20025;-75
2023/03/01 00:23:45;;;;;;;131.55;63.25;;;;;;;-2.21;84.19;101041.66;5051679;28;20441;-76
2023/03/01 00:26:13;;;;;;;154.27;70.22;;;;;;;-2.21;84.46;101042.50;5051596;28;20045;-75
2023/03/01 00:28:38;;;;;;;107.30;53.03;;;;;;;-2.17;84.76;101030.69;5051798;28;20035;-75
2023/03/01 00:31:06;;;;;;;103.18;53.38;;;;;;;-2.16;84.51;101030.72;5052197;28;20034;-75
2023/03/01 00:33:32;;;;;;;95.28;53.03;;;;;;;-2.28;84.29;100999.78;5051581;28;20472;-75
2023/03/01 00:36:00;;;;;;;98.38;50.95;;;;;;;-2.37;83.87;100981.66;5051824;28;20068;-75
2023/03/01 00:38:26;;;;;;;97.13;50.85;;;;;;;-2.40;84.30;100982.47;5051480;28;20453;-76
2023/03/01 00:40:52;;;;;;;90.82;48.33;;;;;;;-2.40;84.00;100997.78;5051926;28;20100;-75
2023/03/01 00:43:17;;;;;;;95.18;48.67;;;;;;;-2.45;83.94;100989.09;5051883;28;20111;-75
2023/03/01 00:45:43;;;;;;;89.28;48.35;;;;;;;-2.37;84.35;100996.97;5051479;28;20032;-75
2023/03/01 00:48:08;;;;;;;93.13;49.70;;;;;;;-2.53;85.45;100998.22;5051764;28;20392;-75
2023/03/01 00:50:34;;;;;;;90.55;48.85;;;;;;;-2.50;86.05;101000.88;5051538;28;20043;-75
2023/03/01 00:52:59;;;;;;;86.80;46.03;;;;;;;-2.40;85.93;101015.63;5051636;28;20029;-75
2023/03/01 00:55:25;;;;;;;83.20;45.15;;;;;;;-2.56;85.84;100985.41;5051725;28;20039;-75
2023/03/01 00:57:50;;;;;;;85.07;45.15;;;;;;;-2.39;85.87;101008.84;5051745;28;20021;-75
2023/03/01 01:00:17;;;;;;;85.40;45.97;;;;;;;-2.37;85.57;101014.84;5051687;28;20029;-75
2023/03/01 01:02:42;;;;;;;87.15;46.80;;;;;;;-2.52;85.34;100983.00;5051425;28;20029;-75
2023/03/01 01:05:08;;;;;;;82.57;45.38;;;;;;;-2.56;85.14;100980.31;5051592;28;20079;-75
2023/03/01 01:07:33;;;;;;;85.80;47.55;;;;;;;-2.57;85.47;100971.81;5051182;28;20056;-75
2023/03/01 01:09:59;;;;;;;89.13;51.30;;;;;;;-2.42;85.51;100985.78;5051402;28;20024;-76
2023/03/01 01:12:24;;;;;;;97.32;51.85;;;;;;;-2.49;86.13;100976.22;5051378;28;20033;-75
2023/03/01 01:14:49;;;;;;;92.22;50.25;;;;;;;-2.65;86.03;100946.91;5051432;28;20033;-75
2023/03/01 01:17:15;;;;;;;87.43;47.50;;;;;;;-2.47;86.21;100992.47;5051416;28;20036;-75
2023/03/01 01:19:40;;;;;;;89.47;49.22;;;;;;;-2.53;86.05;100978.72;5051181;28;20025;-76
2023/03/01 01:22:05;;;;;;;81.85;45.95;;;;;;;-2.70;86.04;100953.53;5051356;28;20029;-75
2023/03/01 01:24:31;;;;;;;83.50;46.72;;;;;;;-2.56;86.00;100977.75;5051837;28;20049;-76
2023/03/01 01:26:56;;;;;;;83.78;45.90;;;;;;;-2.71;85.89;100946.72;5055257;28;20029;-75
2023/03/01 01:29:22;;;;;;;80.47;47.25;;;;;;;-2.56;85.66;100982.88;5055220;28;20056;-76
2023/03/01 01:31:48;;;;;;;82.55;46.60;;;;;;;-2.74;86.38;100950.03;5054827;28;20494;-75
2023/03/01 01:34:19;;;;;;;87.70;47.63;;;;;;;-2.62;86.41;100980.13;5055000;28;20105;-76
2023/03/01 01:36:47;;;;;;;;;;;;;;;-2.76;87.32;100977.19;5054983;28;20123;-75
2023/03/01 01:39:13;;;;;;;86.55;45.30;;;;;;;-2.92;87.91;100937.63;5054922;28;19912;-75
2023/03/01 01:41:41;;;;;;;76.47;41.85;;;;;;;-2.73;87.61;100972.19;5054789;28;20079;-75
2023/03/01 01:44:14;;;;;;;87.38;44.22;;;;;;;-2.94;87.37;100934.19;5054968;28;20112;-75
2023/03/01 01:47:03;;;;;;;85.30;45.38;;;;;;;-2.77;87.83;100968.69;5054568;28;20036;-75
2023/03/01 01:49:35;;;;;;;81.38;44.05;;;;;;;-2.80;88.40;100966.03;5054431;28;20032;-75
2023/03/01 01:52:04;;;;;;;85.28;45.63;;;;;;;-2.79;88.04;100960.09;5054796;28;20127;-75
2023/03/01 01:54:38;;;;;;;89.88;43.78;;;;;;;-2.90;88.50;100947.91;5054498;28;20412;-75
2023/03/01 01:57:12;;;;;;;98.60;46.47;;;;;;;-2.78;88.28;100968.66;5054546;28;20396;-76
2023/03/01 01:59:38;;;;;;;92.50;44.00;;;;;;;-2.91;87.78;100931.72;5054243;28;20384;-76
2023/03/01 02:02:05;;;;;;;85.63;43.55;;;;;;;-2.92;87.77;100929.13;5054585;28;20036;-75
2023/03/01 02:04:32;;;;;;;80.10;42.42;;;;;;;-2.92;87.79;100913.84;5054217;28;20051;-75
2023/03/01 02:07:03;;;;;;;71.90;41.25;;;;;;;-2.75;87.65;100953.41;5054530;28;20041;-75
2023/03/01 02:09:30;;;;;;;110.00;48.58;;;;;;;-2.93;88.14;100924.88;5054306;28;20528;-75
2023/03/01 02:11:55;;;;;;;104.18;45.60;;;;;;;-2.98;88.21;100917.09;5054374;28;20472;-75
2023/03/01 02:14:21;;;;;;;97.13;43.38;;;;;;;-2.79;88.24;100955.00;5054147;28;20037;-75
2023/03/01 02:16:47;;;;;;;85.10;42.33;;;;;;;-2.78;88.42;100948.25;5054203;28;20108;-75
2023/03/01 02:19:28;;;;;;;83.15;41.47;;;;;;;-2.94;87.75;100933.34;5054308;28;20028;-75
2023/03/01 02:22:12;;;;;;;84.45;40.90;;;;;;;-2.98;87.62;100941.72;5054283;28;20056;-75
2023/03/01 02:24:52;;;;;;;76.40;40.95;;;;;;;-2.96;88.26;100929.88;5053783;28;20072;-76
2023/03/01 02:27:21;;;;;;;69.18;39.22;;;;;;;-2.93;88.68;100941.03;5054165;28;20075;-75
2023/03/01 02:29:47;;;;;;;70.43;37.83;;;;;;;-2.93;88.12;100930.81;5053864;28;20116;-76
2023/03/01 02:32:15;;;;;;;60.38;34.35;;;;;;;-2.89;87.67;100944.53;5054086;28;20111;-76
2023/03/01 02:34:40;;;;;;;62.00;34.78;;;;;;;-2.76;87.24;100956.78;5053492;28;20029;-76
2023/03/01 02:37:14;;;;;;;59.72;34.63;;;;;;;-2.76;86.37;100964.44;5053633;28;20039;-76
2023/03/01 02:39:44;;;;;;;60.53;36.38;;;;;;;-2.73;87.08;100954.34;5053733;28;20452;-76
2023/03/01 02:42:14;;;;;;;56.85;32.58;;;;;;;-2.87;87.13;100925.88;5053900;28;20361;-76
2023/03/01 02:44:40;;;;;;;55.63;33.30;;;;;;;-2.70;87.29;100959.50;5053600;28;20476;-75
2023/03/01 02:47:05;;;;;;;54.70;31.50;;;;;;;-2.82;87.65;100934.56;5053614;28;20032;-76
2023/03/01 02:49:34;;;;;;;56.03;32.20;;;;;;;-2.87;87.65;100925.03;5053366;28;20028;-76
2023/03/01 02:52:11;;;;;;;53.70;33.25;;;;;;;-2.93;87.69;100927.41;5053448;28;20083;-75
2023/03/01 02:54:48;;;;;;;56.35;32.97;;;;;;;-2.86;88.16;100954.81;5053379;28;20021;-76
2023/03/01 02:57:14;;;;;;;54.67;30.13;;;;;;;-3.02;87.93;100930.56;5053518;28;20029;-76
2023/03/01 02:59:40;;;;;;;67.85;34.13;;;;;;;-3.11;88.01;100931.16;5053265;28;20123;-76
2023/03/01 03:02:07;;;;;;;60.47;32.20;;;;;;;-2.96;88.62;100955.34;5053381;28;20025;-76
2023/03/01 03:04:33;;;;;;;60.95;33.55;;;;;;;-3.03;88.19;100934.81;5053084;28;20542;-76
2023/03/01 03:06:58;;;;;;;61.28;32.15;;;;;;;-2.91;88.03;100948.69;5053420;28;20049;-76
2023/03/01 03:09:23;;;;;;;64.38;33.60;;;;;;;-2.81;87.87;100963.47;5053361;28;20066;-76
2023/03/01 03:11:49;;;;;;;58.53;32.10;;;;;;;-2.95;87.34;100949.44;5052986;28;20140;-76
2023/03/01 03:14:16;;;;;;;61.42;32.70;;;;;;;-2.87;86.99;100963.25;5053070;28;20503;-76
2023/03/01 03:16:44;;;;;;;61.45;34.15;;;;;;;-2.91;87.22;100961.44;5052858;28;20112;-76
2023/03/01 03:19:10;;;;;;;58.78;31.05;;;;;;;-3.11;87.64;100933.72;5053321;28;20029;-76
2023/03/01 03:21:35;;;;;;;56.92;31.40;;;;;;;-2.95;88.35;100949.44;5053020;28;20049;-76
2023/03/01 03:24:01;;;;;;;52.63;30.73;;;;;;;-3.05;87.45;100928.78;5052908;28;20060;-76
2023/03/01 03:26:27;;;;;;;62.92;31.75;;;;;;;-2.90;86.69;100946.22;5052904;28;20028;-76
2023/03/01 03:28:52;;;;;;;58.85;31.50;;;;;;;-2.91;87.41;100944.47;5052652;28;20033;-76
2023/03/01 03:31:17;;;;;;;53.10;29.80;;;;;;;-3.06;87.04;100916.00;5052767;28;20119;-76
2023/03/01 03:33:43;;;;;;;56.88;31.55;;;;;;;-2.95;86.75;100936.69;5053071;28;20427;-76
2023/03/01 03:36:12;;;;;;;56.35;32.25;;;;;;;-2.92;86.83;100950.38;5052700;28;20366;-76
2023/03/01 03:38:39;;;;;;;53.38;31.73;;;;;;;-3.14;87.15;100913.22;5052555;28;20035;-76
2023/03/01 03:41:07;;;;;;;51.95;30.25;;;;;;;-3.03;87.74;100932.25;5052567;28;20029;-76
2023/03/01 03:43:35;;;;;;;60.83;32.90;;;;;;;-3.04;87.22;100922.00;5052387;28;20431;-76
2023/03/01 03:46:05;;;;;;;60.03;33.40;;;;;;;-3.09;86.84;100910.81;5052414;28;20100;-76
2023/03/01 03:48:34;;;;;;;58.35;32.40;;;;;;;-3.03;87.08;100919.50;5051921;28;20144;-76
2023/03/01 03:50:59;;;;;;;57.53;31.83;;;;;;;-3.14;86.70;100900.50;5052612;28;20029;-76
2023/03/01 03:53:26;;;;;;;60.47;29.90;;;;;;;-3.03;86.16;100931.41;5052434;28;20029;-76
2023/03/01 03:55:53;;;;;;;55.80;31.90;;;;;;;-3.06;86.55;100926.19;5052220;28;20056;-76
2023/03/01 03:58:20;;;;;;;65.28;32.15;;;;;;;-3.22;86.39;100904.50;5052229;28;20032;-76
2023/03/01 04:00:49;;;;;;;56.08;30.90;;;;;;;-3.05;86.55;100922.81;5052266;28;20021;-76
2023/03/01 04:03:16;;;;;;;56.80;31.85;;;;;;;-3.20;86.29;100896.88;5052389;28;20399;-76
2023/03/01 04:05:42;;;;;;;58.03;31.98;;;;;;;-3.22;86.71;100901.94;5051992;28;20028;-76
2023/03/01 04:08:08;;;;;;;60.65;32.90;;;;;;;-3.33;86.63;100891.47;5052153;28;20041;-76
2023/03/01 04:10:44;;;;;;;58.83;31.13;;;;;;;-3.30;85.75;100888.13;5052036;28;20099;-76
2023/03/01 04:13:16;;;;;;;58.05;32.35;;;;;;;-3.28;87.01;100923.03;5052004;28;20087;-76
2023/03/01 04:15:45;;;;;;;46.97;28.90;;;;;;;-3.27;88.33;100924.75;5051737;28;20465;-76
2023/03/01 04:18:15;;;;;;;46.88;28.58;;;;;;;-3.34;88.39;100899.91;5052103;28;20053;-76
2023/03/01 04:20:41;;;;;;;50.20;29.30;;;;;;;-3.19;87.52;100930.06;5051705;28;20436;-76
2023/03/01 04:23:20;;;;;;;50.25;29.05;;;;;;;-3.22;87.14;100911.28;5051888;28;20533;-76
2023/03/01 04:25:55;;;;;;;49.53;29.33;;;;;;;-3.17;87.02;100917.38;5051524;28;20053;-76
2023/03/01 04:28:24;;;;;;;46.00;27.83;;;;;;;-3.15;86.05;100911.50;5052097;28;20055;-76
2023/03/01 04:30:50;;;;;;;53.85;30.85;;;;;;;-3.32;86.79;100888.09;5051786;28;20028;-76
2023/03/01 04:33:15;;;;;;;52.72;29.48;;;;;;;-3.55;87.78;100856.81;5052018;28;20025;-76
2023/03/01 04:35:40;;;;;;;50.25;29.30;;;;;;;-3.28;87.01;100905.19;5051674;28;20032;-76
2023/03/01 04:38:06;;;;;;;53.55;29.92;;;;;;;-3.26;87.01;100912.88;5051778;28;20361;-76
2023/03/01 04:40:31;;;;;;;49.75;29.02;;;;;;;-3.31;87.62;100914.41;5051952;28;20053;-76
2023/03/01 04:42:57;;;;;;;55.15;30.77;;;;;;;-3.35;87.35;100913.47;5051688;28;20120;-76
2023/03/01 04:45:22;;;;;;;54.00;30.88;;;;;;;-3.49;87.88;100890.97;5051825;28;20061;-76
2023/03/01 04:47:48;;;;;;;55.78;31.30;;;;;;;-3.51;88.08;100912.13;5051459;28;20086;-76
2023/03/01 04:50:16;;;;;;;54.78;30.98;;;;;;;-3.43;88.41;100916.59;5051709;28;20504;-76
2023/03/01 04:52:43;;;;;;;56.05;32.35;;;;;;;-3.58;87.95;100892.41;5051332;28;20388;-76
2023/03/01 04:55:09;;;;;;;55.55;30.67;;;;;;;-3.40;87.79;100922.66;5051810;28;20032;-76
2023/03/01 04:57:35;;;;;;;54.17;30.25;;;;;;;-3.36;87.90;100919.38;5051794;28;20124;-76
2023/03/01 05:00:00;;;;;;;55.60;29.55;;;;;;;-3.32;88.17;100918.66;5055149;28;20043;-76
2023/03/01 05:02:26;;;;;;;46.30;28.02;;;;;;;-3.49;87.36;100875.69;5055680;28;20029;-76
2023/03/01 05:04:51;;;;;;;58.65;32.08;;;;;;;-3.28;86.79;100907.75;5055383;28;20021;-76
2023/03/01 05:07:19;;;;;;;51.78;29.55;;;;;;;-3.51;86.29;100889.22;5055350;28;20032;-76
2023/03/01 05:09:47;;;;;;;56.10;30.58;;;;;;;-3.45;87.17;100903.84;5055173;28;20500;-76
2023/03/01 05:12:14;;;;;;;54.80;31.40;;;;;;;-3.45;88.11;100905.53;5055803;28;20063;-76
2023/03/01 05:14:40;;;;;;;53.97;31.00;;;;;;;-3.35;87.72;100915.16;5055052;28;20025;-76
2023/03/01 05:17:06;;;;;;;53.55;30.58;;;;;;;-3.49;87.67;100888.41;5055286;28;20037;-76
2023/03/01 05:19:32;;;;;;;55.83;31.27;;;;;;;-3.41;87.41;100905.66;5055194;28;20033;-76
2023/03/01 05:22:01;;;;;;;55.50;30.42;;;;;;;-3.42;87.40;100903.91;5055270;28;20037;-76
2023/03/01 05:24:26;;;;;;;69.05;37.97;;;;;;;-3.35;87.28;100913.47;5055175;28;20476;-76
2023/03/01 05:26:52;;;;;;;63.50;35.78;;;;;;;-3.47;86.84;100889.31;5055081;28;20061;-76
2023/03/01 05:29:24;;;;;;;71.70;36.33;;;;;;;-3.53;87.69;100887.44;5054964;28;20029;-76
2023/03/01 05:31:57;;;;;;;60.47;33.60;;;;;;;-3.41;88.15;100917.50;5054826;28;20037;-76
2023/03/01 05:34:35;;;;;;;83.95;42.53;;;;;;;-3.58;87.74;100886.41;5054771;28;20497;-76
2023/03/01 05:37:01;;;;;;;76.57;40.20;;;;;;;-3.64;87.59;100876.94;5054971;28;20415;-76
2023/03/01 05:39:28;;;;;;;78.25;40.42;;;;;;;-3.44;87.68;100914.88;5054959;28;20044;-76
2023/03/01 05:41:56;;;;;;;82.18;42.15;;;;;;;-3.46;87.78;100913.94;5054915;28;20031;-76
2023/03/01 05:44:21;;;;;;;99.22;49.45;;;;;;;-3.48;87.79;100913.91;5054951;28;20043;-76
2023/03/01 05:46:47;;;;;;;101.40;52.83;;;;;;;-3.40;87.65;100917.56;5054532;28;20112;-76
2023/03/01 05:49:13;;;;;;;108.90;54.83;;;;;;;-3.46;87.58;100875.75;5055002;28;20025;-76
2023/03/01 05:51:43;;;;;;;96.72;49.08;;;;;;;-3.29;86.97;100898.38;5054734;28;20086;-76
2023/03/01 05:54:09;;;;;;;78.55;43.75;;;;;;;-3.36;86.69;100890.50;5054630;28;20033;-76
2023/03/01 05:56:36;;;;;;;92.20;47.22;;;;;;;-3.18;86.65;100920.75;5054680;28;20067;-76
2023/03/01 05:59:02;;;;;;;79.47;44.00;;;;;;;-3.15;86.72;100918.28;5054463;28;20029;-76
2023/03/01 06:01:28;;;;;;;73.90;42.08;;;;;;;-3.22;87.10;100890.91;5054437;28;20389;-76
2023/03/01 06:03:53;;;;;;;89.68;47.25;;;;;;;-2.99;87.30;100920.47;5054418;28;20025;-76
2023/03/01 06:06:18;;;;;;;79.82;43.08;;;;;;;-3.15;87.07;100888.56;5054648;28;20025;-76
2023/03/01 06:08:44;;;;;;;78.22;43.75;;;;;;;-3.06;87.12;100893.94;5054251;28;20029;-76
2023/03/01 06:11:09;;;;;;;77.82;45.90;;;;;;;-2.87;87.32;100913.13;5053513;28;20033;-76
2023/03/01 06:13:35;;;;;;;76.65;42.60;;;;;;;-2.84;87.25;100876.69;5054203;28;20033;-76
2023/03/01 06:16:00;;;;;;;80.75;45.42;;;;;;;-2.71;87.33;100880.41;5053878;28;20069;-76
2023/03/01 06:18:25;;;;;;;89.82;50.97;;;;;;;-2.32;86.79;100878.91;5054420;28;20103;-76
2023/03/01 06:20:54;;;;;;;95.72;55.25;;;;;;;-1.77;85.45;100890.47;5054077;28;20060;-76
2023/03/01 06:23:20;;;;;;;112.50;63.60;;;;;;;-1.24;84.16;100881.38;5054255;28;20064;-76
2023/03/01 06:25:45;;;;;;;125.72;68.57;;;;;;;-0.77;82.44;100883.19;5053603;28;20081;-76
2023/03/01 06:28:10;;;;;;;131.77;72.95;;;;;;;-0.52;81.66;100852.94;5054084;28;20111;-76
2023/03/01 06:30:35;;;;;;;126.28;72.75;;;;;;;0.02;79.44;100875.19;5054145;28;20036;-76
2023/03/01 06:33:02;;;;;;;121.63;67.25;;;;;;;-0.11;79.06;100892.06;5054120;28;20036;-76
2023/03/01 06:35:30;;;;;;;324.70;170.75;;;;;;;-0.06;79.89;100889.56;5054003;28;20057;-76
2023/03/01 06:37:57;;;;;;;171.88;95.80;;;;;;;0.38;79.20;100879.13;5053663;28;20025;-76
2023/03/01 06:40:22;;;;;;;175.82;96.80;;;;;;;0.90;77.60;100867.03;5053806;28;20025;-76
2023/03/01 06:42:49;;;;;;;179.68;99.68;;;;;;;1.46;75.45;100887.31;5053455;28;20036;-76
2023/03/01 06:45:16;;;;;;;277.13;138.65;;;;;;;1.67;74.97;100858.41;5053595;28;20029;-76
2023/03/01 06:47:42;;;;;;;231.57;117.80;;;;;;;2.06;74.41;100880.13;5053765;28;20029;-76
2023/03/01 06:50:08;;;;;;;211.68;110.45;;;;;;;2.20;73.95;100858.84;5053667;28;20032;-76
2023/03/01 06:52:33;;;;;;;149.30;86.95;;;;;;;2.58;72.54;100872.78;5052271;28;20056;-76
2023/03/01 06:54:59;;;;;;;118.30;66.68;;;;;;;2.91;71.25;100860.09;5051976;28;20055;-76
2023/03/01 06:57:25;;;;;;;108.03;58.70;;;;;;;3.08;70.17;100833.56;5053459;28;20102;-76
2023/03/01 06:59:50;;;;;;;105.35;56.08;;;;;;;3.56;69.45;100870.56;5053227;28;20024;-76
2023/03/01 07:02:15;;;;;;;92.57;51.00;;;;;;;3.79;67.81;100874.00;5053777;28;20453;-76
2023/03/01 07:04:42;;;;;;;82.63;46.22;;;;;;;4.19;67.22;100886.91;5053459;28;20033;-76
2023/03/01 07:07:07;;;;;;;64.60;38.67;;;;;;;4.49;65.06;100884.28;5053061;28;20025;-76
2023/03/01 07:09:33;;;;;;;60.35;38.38;;;;;;;4.70;64.05;100880.78;5053315;28;20357;-76
2023/03/01 07:11:58;;;;;;;63.15;34.40;;;;;;;4.78;63.68;100851.53;5052943;28;20464;-76
2023/03/01 07:14:25;;;;;;;64.82;38.00;;;;;;;5.23;62.73;100859.06;5052982;28;20036;-76
2023/03/01 07:16:51;;;;;;;92.97;52.58;;;;;;;4.93;62.30;100898.81;5053131;28;20033;-76
2023/03/01 07:19:16;;;;;;;93.22;51.25;;;;;;;4.49;63.80;100907.50;5053169;28;20066;-76
2023/03/01 07:21:41;;;;;;;80.88;44.38;;;;;;;4.62;63.75;100884.25;5053100;28;20086;-76
2023/03/01 07:24:07;;;;;;;71.50;40.33;;;;;;;5.41;62.66;100890.81;5052424;28;20095;-76
2023/03/01 07:26:33;;;;;;;70.90;39.65;;;;;;;5.72;61.34;100848.41;5052831;28;20036;-76
2023/03/01 07:28:59;;;;;;;64.15;36.90;;;;;;;6.29;60.58;100875.56;5052541;28;20025;-76
2023/03/01 07:31:27;;;;;;;64.93;37.53;;;;;;;6.53;59.67;100882.19;5052954;28;20051;-76
2023/03/01 07:33:52;;;;;;;59.60;36.72;;;;;;;6.84;59.30;100886.19;5052630;28;20028;-76
2023/03/01 07:36:18;;;;;;;61.60;39.28;;;;;;;7.18;58.74;100881.44;5052711;28;20032;-76
2023/03/01 07:38:43;;;;;;;65.13;39.67;;;;;;;6.06;59.30;100884.34;5052669;28;20032;-76
2023/03/01 07:41:08;;;;;;;60.40;37.33;;;;;;;5.13;61.61;100874.59;5052421;28;20024;-76
2023/03/01 07:43:34;;;;;;;54.83;35.45;;;;;;;5.18;61.29;100844.44;5052539;28;20037;-76
2023/03/01 07:46:01;;;;;;;53.38;33.67;;;;;;;5.75;61.26;100886.31;5052366;28;20025;-76
2023/03/01 07:48:27;;;;;;;48.17;33.45;;;;;;;6.03;60.63;100868.03;5052612;28;20036;-76
2023/03/01 07:50:52;;;;;;;47.30;28.85;;;;;;;6.48;57.86;100856.38;5052306;28;20053;-76
2023/03/01 07:53:17;;;;;;;41.92;28.58;;;;;;;6.38;57.85;100886.66;5052443;28;20059;-76
2023/03/01 07:55:43;;;;;;;35.92;24.63;;;;;;;5.90;58.73;100860.34;5052407;28;20056;-76
2023/03/01 07:58:08;;;;;;;40.10;26.15;;;;;;;5.78;60.29;100885.44;5052003;28;20029;-76
2023/03/01 08:00:33;;;;;;;41.40;26.30;;;;;;;5.21;60.69;100860.78;5052513;28;20428;-76
2023/03/01 08:03:00;;;;;;;33.83;23.63;;;;;;;5.29;60.16;100852.16;5052369;28;20032;-76
2023/03/01 08:05:26;;;;;;;35.97;23.05;;;;;;;5.34;60.80;100876.22;5052308;28;20057;-76
2023/03/01 08:07:51;;;;;;;30.83;22.05;;;;;;;5.31;60.92;100856.44;5051907;28;20079;-76
2023/03/01 08:10:17;;;;;;;34.92;21.25;;;;;;;5.34;59.45;100850.38;5052237;28;20024;-76
2023/03/01 08:12:42;;;;;;;34.05;22.20;;;;;;;5.16;59.55;100859.09;5052127;28;20388;-76
2023/03/01 08:15:08;;;;;;;33.00;22.80;;;;;;;4.86;60.43;100870.44;5052165;28;20056;-76
2023/03/01 08:17:34;;;;;;;32.45;21.50;;;;;;;5.02;61.24;100848.00;5050734;28;20040;-76
2023/03/01 08:19:59;;;;;;;34.35;22.75;;;;;;;5.65;59.69;100867.44;5051900;28;20115;-76
2023/03/01 08:22:24;;;;;;;34.35;23.95;;;;;;;4.65;61.03;100859.31;5052081;28;20287;-76
2023/03/01 08:24:50;;;;;;;35.75;24.20;;;;;;;4.46;62.47;100853.31;5051683;28;20037;-76
2023/03/01 08:27:16;;;;;;;31.48;20.17;;;;;;;5.14;60.05;100846.22;5051823;28;20048;-76
2023/03/01 08:29:42;;;;;;;31.73;22.35;;;;;;;5.43;59.05;100850.31;5052365;28;20024;-76
2023/03/01 08:32:07;;;;;;;33.60;22.42;;;;;;;5.39;58.79;100872.72;5051770;28;20036;-76
2023/03/01 08:34:35;;;;;;;35.45;21.05;;;;;;;3.99;59.68;100840.50;5051822;28;20423;-76
2023/03/01 08:37:01;;;;;;;38.88;22.73;;;;;;;3.76;62.34;100866.28;5051640;28;20047;-76
2023/03/01 08:39:26;;;;;;;95.90;52.78;;;;;;;4.52;61.47;100851.63;5051835;28;20116;-76
2023/03/01 08:41:52;;;;;;;39.72;24.60;;;;;;;5.15;60.21;100881.50;5051460;28;20295;-76
2023/03/01 08:44:18;;;;;;;43.38;28.10;;;;;;;5.03;58.77;100870.34;5051937;28;20021;-76
2023/03/01 08:46:45;;;;;;;39.08;27.23;;;;;;;4.22;62.63;100874.03;5051782;28;20365;-76
2023/03/01 08:49:16;;;;;;;46.70;32.33;;;;;;;4.26;63.61;100868.00;5051584;28;20461;-76
2023/03/01 08:51:42;;;;;;;66.73;47.40;;;;;;;4.95;61.57;100862.66;5051732;28;20029;-76
2023/03/01 08:54:11;;;;;;;40.92;29.27;;;;;;;5.20;60.28;100840.16;5051297;28;20348;-76
2023/03/01 08:56:36;;;;;;;34.75;25.17;;;;;;;4.50;62.17;100869.66;5051612;28;20029;-76
2023/03/01 08:59:02;;;;;;;80.07;58.78;;;;;;;3.92;63.80;100834.53;5051541;28;20033;-76
2023/03/01 09:01:27;;;;;;;92.05;71.22;;;;;;;4.36;62.55;100841.31;5051763;28;20028;-76
2023/03/01 09:03:53;;;;;;;54.42;40.45;;;;;;;4.96;62.31;100854.03;5051477;28;20519;-76
2023/03/01 09:06:19;;;;;;;39.45;28.35;;;;;;;5.21;60.68;100852.19;5051521;28;20063;-76
2023/03/01 09:08:47;;;;;;;36.35;25.63;;;;;;;5.26;60.63;100848.69;5051488;28;20116;-76
2023/03/01 09:11:16;;;;;;;36.30;23.23;;;;;;;5.29;60.69;100826.31;5051219;28;20469;-76
2023/03/01 09:13:42;;;;;;;34.58;24.38;;;;;;;5.22;60.63;100822.91;5051643;28;20021;-76
2023/03/01 09:16:08;;;;;;;49.38;33.95;;;;;;;5.42;60.31;100846.03;5051244;28;20438;-76
2023/03/01 09:18:35;;;;;;;45.10;30.95;;;;;;;5.38;60.47;100837.44;5051512;28;20044;-76
2023/03/01 09:21:02;;;;;;;42.63;29.08;;;;;;;5.36;60.05;100846.94;5051184;28;20029;-76
2023/03/01 09:23:27;;;;;;;35.10;24.30;;;;;;;5.10;59.67;100825.53;5051272;28;20120;-76
2023/03/01 09:25:52;;;;;;;36.53;25.55;;;;;;;5.12;60.09;100829.84;5050890;28;20126;-76
2023/03/01 09:28:18;;;;;;;38.78;27.15;;;;;;;5.22;60.81;100840.97;5051611;28;20025;-76
2023/03/01 09:30:43;;;;;;;37.78;27.10;;;;;;;5.13;60.48;100841.88;5051552;28;20040;-76
2023/03/01 09:33:14;;;;;;;40.92;28.27;;;;;;;5.09;60.86;100829.84;5051226;28;20040;-76
2023/03/01 09:35:45;;;;;;;33.60;23.03;;;;;;;4.79;60.53;100824.84;5051311;28;20503;-76
2023/03/01 09:38:11;;;;;;;35.13;23.35;;;;;;;4.83;61.57;100829.97;5051041;28;20036;-76
2023/03/01 09:40:36;;;;;;;48.92;36.72;;;;;;;5.05;61.06;100850.53;5051425;28;20025;-76
2023/03/01 09:43:39;;;;;;;38.08;26.65;;;;;;;5.03;60.89;100860.88;5050978;28;20041;-76
2023/03/01 09:46:09;;;;;;;37.67;27.23;;;;;;;5.06;61.23;100870.34;5030319;28;20410;-76
2023/03/01 09:48:51;;;;;;;34.25;23.48;;;;;;;4.89;60.92;100842.03;5032424;28;20045;-76
2023/03/01 09:51:31;;;;;;;34.72;22.42;;;;;;;4.87;60.70;100833.41;5032181;28;20033;-76
2023/03/01 09:53:58;;;;;;;34.08;21.92;;;;;;;5.04;60.87;100862.59;5014839;28;20076;-76
2023/03/01 09:56:53;;;;;;;35.28;23.65;;;;;;;5.04;60.79;100866.91;5012578;28;20480;-76
2023/03/01 09:59:27;;;;;;;37.88;25.35;;;;;;;5.00;59.98;100858.31;5012396;28;20069;-76
2023/03/01 10:02:04;;;;;;;35.78;25.27;;;;;;;4.89;60.00;100836.88;5012452;28;20112;-76
2023/03/01 10:04:39;;;;;;;42.60;29.23;;;;;;;4.95;60.38;100839.41;5012425;28;20398;-76
2023/03/01 10:07:10;;;;;;;38.97;26.50;;;;;;;4.80;60.30;100858.38;5012013;28;20534;-76
2023/03/01 10:09:41;;;;;;;36.28;24.77;;;;;;;4.11;61.70;100821.59;5012312;28;20124;-76
2023/03/01 10:12:17;;;;;;;47.60;30.70;;;;;;;4.37;61.88;100849.91;5012041;28;20113;-76
2023/03/01 10:14:55;;;;;;;52.30;29.58;;;;;;;4.21;61.63;100854.22;5012122;28;20044;-76
2023/03/01 10:17:38;;;;;;;39.00;25.77;;;;;;;4.22;61.75;100848.25;5012065;28;20038;-76
2023/03/01 10:20:25;;;;;;;37.65;24.33;;;;;;;4.39;62.18;100841.31;5011977;28;20044;-76
2023/03/01 10:22:52;;;;;;;37.38;24.65;;;;;;;4.39;62.46;100805.22;5022581;28;20481;-76
2023/03/01 10:25:39;;;;;;;38.72;24.55;;;;;;;4.43;60.80;100809.50;5034280;28;20464;-76
2023/03/01 10:28:28;;;;;;;34.55;22.98;;;;;;;3.85;59.96;100803.59;5033743;28;20029;-76
2023/03/01 10:30:53;;;;;;;35.70;23.48;;;;;;;3.94;60.67;100830.22;5034098;28;20021;-76
2023/03/01 10:33:27;;;;;;;30.35;21.10;;;;;;;3.73;60.11;100809.59;5033942;28;20021;-76
2023/03/01 10:35:52;;;;;;;55.40;33.65;;;;;;;3.89;58.68;100823.34;5034097;28;20376;-76
2023/03/01 10:38:20;;;;;;;49.35;28.67;;;;;;;3.88;57.81;100803.59;5033804;28;20025;-76
2023/03/01 10:40:59;;;;;;;33.97;21.15;;;;;;;3.92;57.97;100836.25;5033986;28;20025;-76
2023/03/01 10:43:46;;;;;;;38.00;23.20;;;;;;;3.93;59.30;100809.59;5033797;28;20034;-76
2023/03/01 10:46:32;;;;;;;39.65;24.98;;;;;;;3.72;60.52;100818.19;5033553;28;20102;-76
2023/03/01 10:49:20;;;;;;;42.65;28.15;;;;;;;3.59;62.04;100813.91;5033595;28;20373;-76
2023/03/01 10:51:48;;;;;;;34.83;23.73;;;;;;;3.70;61.97;100814.75;5033674;28;20529;-76
2023/03/01 10:54:32;;;;;;;34.03;23.40;;;;;;;3.78;61.27;100784.69;5033839;28;20464;-76
2023/03/01 10:57:01;;;;;;;35.58;23.85;;;;;;;4.09;61.55;100808.72;5033294;28;20528;-76
2023/03/01 10:59:32;;;;;;;35.47;24.08;;;;;;;4.08;61.78;100791.50;5030881;28;20038;-76
2023/03/01 11:02:22;;;;;;;43.15;28.70;;;;;;;3.85;62.81;100777.81;5031097;28;20045;-76
2023/03/01 11:05:15;;;;;;;43.33;28.45;;;;;;;3.88;63.62;100806.19;5031316;28;20037;-76
2023/03/01 11:07:56;;;;;;;49.30;30.60;;;;;;;4.03;64.22;100800.13;5030938;28;20049;-76
2023/03/01 11:10:25;;;;;;;58.28;37.33;;;;;;;3.82;64.34;100775.25;5030696;28;20084;-76
2023/03/01 11:12:52;;;;;;;56.53;30.90;;;;;;;3.75;64.08;100767.53;5030872;28;20128;-76
2023/03/01 11:15:27;;;;;;;49.22;29.33;;;;;;;3.82;63.46;100794.13;5030508;28;20041;-76
2023/03/01 11:17:55;;;;;;;57.65;35.50;;;;;;;3.94;64.02;100798.41;5031066;28;20537;-76